sensor_id;sensor_type;location;lat;lon;timestamp;temperature;humidity
1570;DHT22;778;50.120;8.698;2023-02-28T00:01:34;1.40;99.90
1570;DHT22;778;50.120;8.698;2023-02-28T00:04:04;1.30;99.90
1570;DHT22;778;50.120;8.698;2023-02-28T00:06:32;1.30;99.90
1570;DHT22;778;50.120;8.698;2023-02-28T00:09:01;1.30;99.90
1570;DHT22;778;50.120;8.698;2023-02-28T00:11:29;1.20;99.90
1570;DHT22;778;50.120;8.698;2023-02-28T00:13:58;1.20;99.90
1570;DHT22;778;50.120;8.698;2023-02-28T00:16:27;1.20;99.90
1570;DHT22;778;50.120;8.698;2023-02-28T00:18:55;1.20;99.90
1570;DHT22;778;50.120;8.698;2023-02-28T00:21:25;1.20;99.90
1570;DHT22;778;50.120;8.698;2023-02-28T00:23:54;1.20;99.90
1570;DHT22;778;50.120;8.698;2023-02-28T00:26:23;1.10;99.90
1570;DHT22;778;50.120;8.698;2023-02-28T00:28:52;1.10;99.90
1570;DHT22;778;50.120;8.698;2023-02-28T00:31:22;1.10;99.90
1570;DHT22;778;50.120;8.698;2023-02-28T00:33:50;1.10;99.90
1570;DHT22;778;50.120;8.698;2023-02-28T00:36:20;1.10;99.90
1570;DHT22;778;50.120;8.698;2023-02-28T00:38:50;1.00;99.90
1570;DHT22;778;50.120;8.698;2023-02-28T00:41:18;1.00;99.90
1570;DHT22;778;50.120;8.698;2023-02-28T00:43:47;1.00;99.90
1570;DHT22;778;50.120;8.698;2023-02-28T00:46:15;1.00;99.90
1570;DHT22;778;50.120;8.698;2023-02-28T00:48:44;1.00;99.90
1570;DHT22;778;50.120;8.698;2023-02-28T00:51:14;1.00;99.90
1570;DHT22;778;50.120;8.698;2023-02-28T00:53:42;0.90;99.90
1570;DHT22;778;50.120;8.698;2023-02-28T00:56:12;0.90;99.90
1570;DHT22;778;50.120;8.698;2023-02-28T00:58:40;1.00;99.90
1570;DHT22;778;50.120;8.698;2023-02-28T01:01:09;0.90;99.90
1570;DHT22;778;50.120;8.698;2023-02-28T01:03:38;0.90;99.90
1570;DHT22;778;50.120;8.698;2023-02-28T01:06:06;0.90;99.90
1570;DHT22;778;50.120;8.698;2023-02-28T01:08:35;0.90;99.90
1570;DHT22;778;50.120;8.698;2023-02-28T01:11:11;0.90;99.90
1570;DHT22;778;50.120;8.698;2023-02-28T01:13:41;0.90;99.90
1570;DHT22;778;50.120;8.698;2023-02-28T01:16:12;0.80;99.90
1570;DHT22;778;50.120;8.698;2023-02-28T01:18:41;0.90;99.90
1570;DHT22;778;50.120;8.698;2023-02-28T01:21:11;0.80;99.90
1570;DHT22;778;50.120;8.698;2023-02-28T01:23:41;0.80;99.90
1570;DHT22;778;50.120;8.698;2023-02-28T01:26:13;0.80;99.90
1570;DHT22;778;50.120;8.698;2023-02-28T01:28:43;0.80;99.90
1570;DHT22;778;50.120;8.698;2023-02-28T01:31:12;0.70;99.90
1570;DHT22;778;50.120;8.698;2023-02-28T01:33:41;0.70;99.90
1570;DHT22;778;50.120;8.698;2023-02-28T01:36:11;0.70;99.90
1570;DHT22;778;50.120;8.698;2023-02-28T01:38:41;0.70;99.90
1570;DHT22;778;50.120;8.698;2023-02-28T01:41:15;0.70;99.90
1570;DHT22;778;50.120;8.698;2023-02-28T01:44:00;0.70;99.90
1570;DHT22;778;50.120;8.698;2023-02-28T01:46:35;0.70;99.90
1570;DHT22;778;50.120;8.698;2023-02-28T01:49:06;0.60;99.90
1570;DHT22;778;50.120;8.698;2023-02-28T01:51:40;0.60;99.90
1570;DHT22;778;50.120;8.698;2023-02-28T01:54:15;0.70;99.90
1570;DHT22;778;50.120;8.698;2023-02-28T01:56:49;0.70;99.90
1570;DHT22;778;50.120;8.698;2023-02-28T01:59:24;0.70;99.90
1570;DHT22;778;50.120;8.698;2023-02-28T02:01:55;0.70;99.90
1570;DHT22;778;50.120;8.698;2023-02-28T02:04:27;0.70;99.90
1570;DHT22;778;50.120;8.698;2023-02-28T02:07:03;0.70;99.90
1570;DHT22;778;50.120;8.698;2023-02-28T02:09:31;0.60;99.90
1570;DHT22;778;50.120;8.698;2023-02-28T02:12:10;0.60;99.90
1570;DHT22;778;50.120;8.698;2023-02-28T02:14:51;0.60;99.90
1570;DHT22;778;50.120;8.698;2023-02-28T02:17:30;0.60;99.90
1570;DHT22;778;50.120;8.698;2023-02-28T02:20:26;0.50;99.90
1570;DHT22;778;50.120;8.698;2023-02-28T02:23:31;0.50;99.90
1570;DHT22;778;50.120;8.698;2023-02-28T02:26:33;0.40;99.90
1570;DHT22;778;50.120;8.698;2023-02-28T02:29:36;0.40;99.90
1570;DHT22;778;50.120;8.698;2023-02-28T02:35:40;0.40;99.90
1570;DHT22;778;50.120;8.698;2023-02-28T02:38:19;0.30;99.90
1570;DHT22;778;50.120;8.698;2023-02-28T02:41:02;0.20;99.90
1570;DHT22;778;50.120;8.698;2023-02-28T02:43:36;0.20;99.90
1570;DHT22;778;50.120;8.698;2023-02-28T02:46:12;0.10;99.90
1570;DHT22;778;50.120;8.698;2023-02-28T02:48:45;0.10;99.90
1570;DHT22;778;50.120;8.698;2023-02-28T02:51:17;0.10;99.90
1570;DHT22;778;50.120;8.698;2023-02-28T02:53:49;0.10;99.90
1570;DHT22;778;50.120;8.698;2023-02-28T02:56:23;0.10;99.90
1570;DHT22;778;50.120;8.698;2023-02-28T02:58:57;0.10;99.90
1570;DHT22;778;50.120;8.698;2023-02-28T03:01:30;0.10;99.90
1570;DHT22;778;50.120;8.698;2023-02-28T03:04:01;0.10;99.90
1570;DHT22;778;50.120;8.698;2023-02-28T03:06:32;0.10;99.90
1570;DHT22;778;50.120;8.698;2023-02-28T03:09:02;0.10;99.90
1570;DHT22;778;50.120;8.698;2023-02-28T03:11:33;0.00;99.90
1570;DHT22;778;50.120;8.698;2023-02-28T03:14:25;0.00;99.90
1570;DHT22;778;50.120;8.698;2023-02-28T03:20:31;-0.10;99.90
1570;DHT22;778;50.120;8.698;2023-02-28T03:23:13;0.00;99.90
1570;DHT22;778;50.120;8.698;2023-02-28T03:25:54;0.00;99.90
1570;DHT22;778;50.120;8.698;2023-02-28T03:28:32;-0.10;99.90
1570;DHT22;778;50.120;8.698;2023-02-28T03:31:14;-0.10;99.90
1570;DHT22;778;50.120;8.698;2023-02-28T03:33:47;-0.10;99.90
1570;DHT22;778;50.120;8.698;2023-02-28T03:36:24;0.20;99.90
1570;DHT22;778;50.120;8.698;2023-02-28T03:38:58;0.80;99.90
1570;DHT22;778;50.120;8.698;2023-02-28T03:41:35;1.10;99.90
1570;DHT22;778;50.120;8.698;2023-02-28T03:44:09;1.20;99.90
1570;DHT22;778;50.120;8.698;2023-02-28T03:46:45;1.30;99.90
1570;DHT22;778;50.120;8.698;2023-02-28T03:49:20;1.10;99.90
1570;DHT22;778;50.120;8.698;2023-02-28T03:51:51;0.70;99.90
1570;DHT22;778;50.120;8.698;2023-02-28T03:54:26;0.50;99.90
1570;DHT22;778;50.120;8.698;2023-02-28T03:56:59;0.30;99.90
1570;DHT22;778;50.120;8.698;2023-02-28T03:59:34;0.20;99.90
1570;DHT22;778;50.120;8.698;2023-02-28T04:02:06;0.10;99.90
1570;DHT22;778;50.120;8.698;2023-02-28T04:04:35;0.10;99.90
1570;DHT22;778;50.120;8.698;2023-02-28T04:07:07;0.00;99.90
1570;DHT22;778;50.120;8.698;2023-02-28T04:09:38;-0.10;99.90
1570;DHT22;778;50.120;8.698;2023-02-28T04:12:07;-0.10;99.90
1570;DHT22;778;50.120;8.698;2023-02-28T04:14:36;-0.10;99.90
1570;DHT22;778;50.120;8.698;2023-02-28T04:17:04;-0.10;99.90
1570;DHT22;778;50.120;8.698;2023-02-28T04:19:33;-0.10;99.90
1570;DHT22;778;50.120;8.698;2023-02-28T04:22:01;-0.10;99.90
1570;DHT22;778;50.120;8.698;2023-02-28T04:24:30;-0.20;99.90
1570;DHT22;778;50.120;8.698;2023-02-28T04:27:00;-0.30;99.90
1570;DHT22;778;50.120;8.698;2023-02-28T04:29:30;-0.30;99.90
1570;DHT22;778;50.120;8.698;2023-02-28T04:32:00;-0.20;99.90
1570;DHT22;778;50.120;8.698;2023-02-28T04:34:31;-0.20;99.90
1570;DHT22;778;50.120;8.698;2023-02-28T04:37:00;-0.20;99.90
1570;DHT22;778;50.120;8.698;2023-02-28T04:39:40;-0.20;99.90
1570;DHT22;778;50.120;8.698;2023-02-28T04:42:11;-0.10;99.90
1570;DHT22;778;50.120;8.698;2023-02-28T04:44:40;-0.10;99.90
1570;DHT22;778;50.120;8.698;2023-02-28T04:47:08;-0.10;99.90
1570;DHT22;778;50.120;8.698;2023-02-28T04:49:37;0.00;99.90
1570;DHT22;778;50.120;8.698;2023-02-28T04:52:05;0.00;99.90
1570;DHT22;778;50.120;8.698;2023-02-28T04:54:34;0.00;99.90
1570;DHT22;778;50.120;8.698;2023-02-28T04:57:02;0.10;99.90
1570;DHT22;778;50.120;8.698;2023-02-28T04:59:32;0.00;99.90
1570;DHT22;778;50.120;8.698;2023-02-28T05:02:01;0.00;99.90
1570;DHT22;778;50.120;8.698;2023-02-28T05:04:34;0.00;99.90
1570;DHT22;778;50.120;8.698;2023-02-28T05:07:03;0.00;99.90
1570;DHT22;778;50.120;8.698;2023-02-28T05:09:31;-0.10;99.90
1570;DHT22;778;50.120;8.698;2023-02-28T05:12:01;-0.10;99.90
1570;DHT22;778;50.120;8.698;2023-02-28T05:14:31;-0.10;99.90
1570;DHT22;778;50.120;8.698;2023-02-28T05:16:59;-0.10;99.90
1570;DHT22;778;50.120;8.698;2023-02-28T05:19:28;-0.10;99.90
1570;DHT22;778;50.120;8.698;2023-02-28T05:21:56;-0.10;99.90
1570;DHT22;778;50.120;8.698;2023-02-28T05:24:25;-0.10;99.90
1570;DHT22;778;50.120;8.698;2023-02-28T05:26:54;-0.10;99.90
1570;DHT22;778;50.120;8.698;2023-02-28T05:29:23;-0.20;99.90
1570;DHT22;778;50.120;8.698;2023-02-28T05:31:53;-0.20;99.90
1570;DHT22;778;50.120;8.698;2023-02-28T05:34:21;-0.10;99.90
1570;DHT22;778;50.120;8.698;2023-02-28T05:36:49;-0.10;99.90
1570;DHT22;778;50.120;8.698;2023-02-28T05:39:18;-0.20;99.90
1570;DHT22;778;50.120;8.698;2023-02-28T05:41:46;-0.20;99.90
1570;DHT22;778;50.120;8.698;2023-02-28T05:44:15;-0.20;99.90
1570;DHT22;778;50.120;8.698;2023-02-28T05:46:44;-0.20;99.90
1570;DHT22;778;50.120;8.698;2023-02-28T05:49:13;-0.20;99.90
1570;DHT22;778;50.120;8.698;2023-02-28T05:51:42;-0.20;99.90
1570;DHT22;778;50.120;8.698;2023-02-28T05:54:10;-0.20;99.90
1570;DHT22;778;50.120;8.698;2023-02-28T05:56:39;-0.20;99.90
1570;DHT22;778;50.120;8.698;2023-02-28T05:59:11;-0.20;99.90
1570;DHT22;778;50.120;8.698;2023-02-28T06:01:41;-0.20;99.90
1570;DHT22;778;50.120;8.698;2023-02-28T06:04:18;-0.20;99.90
1570;DHT22;778;50.120;8.698;2023-02-28T06:06:57;-0.20;99.90
1570;DHT22;778;50.120;8.698;2023-02-28T06:09:26;-0.20;99.90
1570;DHT22;778;50.120;8.698;2023-02-28T06:11:57;-0.20;99.90
1570;DHT22;778;50.120;8.698;2023-02-28T06:14:26;-0.30;99.90
1570;DHT22;778;50.120;8.698;2023-02-28T06:16:55;-0.20;99.90
1570;DHT22;778;50.120;8.698;2023-02-28T06:19:26;-0.30;99.90
1570;DHT22;778;50.120;8.698;2023-02-28T06:21:56;-0.20;99.90
1570;DHT22;778;50.120;8.698;2023-02-28T06:24:26;-0.20;99.90
1570;DHT22;778;50.120;8.698;2023-02-28T06:26:56;-0.20;99.90
1570;DHT22;778;50.120;8.698;2023-02-28T06:29:25;-0.20;99.90
1570;DHT22;778;50.120;8.698;2023-02-28T06:31:54;-0.20;99.90
1570;DHT22;778;50.120;8.698;2023-02-28T06:34:22;-0.30;99.90
1570;DHT22;778;50.120;8.698;2023-02-28T06:36:53;-0.30;99.90
1570;DHT22;778;50.120;8.698;2023-02-28T06:39:21;-0.20;99.90
1570;DHT22;778;50.120;8.698;2023-02-28T06:41:50;-0.20;99.90
1570;DHT22;778;50.120;8.698;2023-02-28T06:44:22;-0.20;99.90
1570;DHT22;778;50.120;8.698;2023-02-28T06:46:51;-0.20;99.90
1570;DHT22;778;50.120;8.698;2023-02-28T06:49:20;-0.20;99.90
1570;DHT22;778;50.120;8.698;2023-02-28T06:51:48;-0.20;99.90
1570;DHT22;778;50.120;8.698;2023-02-28T06:54:18;-0.10;99.90
1570;DHT22;778;50.120;8.698;2023-02-28T06:56:49;-0.10;99.90
1570;DHT22;778;50.120;8.698;2023-02-28T06:59:18;0.00;99.90
1570;DHT22;778;50.120;8.698;2023-02-28T07:01:47;0.00;99.90
1570;DHT22;778;50.120;8.698;2023-02-28T07:04:15;0.10;99.90
1570;DHT22;778;50.120;8.698;2023-02-28T07:06:44;0.10;99.90
1570;DHT22;778;50.120;8.698;2023-02-28T07:09:12;0.20;99.90
1570;DHT22;778;50.120;8.698;2023-02-28T07:11:43;0.20;99.90
1570;DHT22;778;50.120;8.698;2023-02-28T07:14:11;0.20;99.90
1570;DHT22;778;50.120;8.698;2023-02-28T07:16:39;0.30;99.90
1570;DHT22;778;50.120;8.698;2023-02-28T07:19:08;0.30;99.90
1570;DHT22;778;50.120;8.698;2023-02-28T07:21:37;0.40;99.90
1570;DHT22;778;50.120;8.698;2023-02-28T07:24:06;0.40;99.90
1570;DHT22;778;50.120;8.698;2023-02-28T07:26:35;0.50;99.90
1570;DHT22;778;50.120;8.698;2023-02-28T07:29:04;0.50;99.90
1570;DHT22;778;50.120;8.698;2023-02-28T07:31:33;0.60;99.90
1570;DHT22;778;50.120;8.698;2023-02-28T07:34:02;0.60;99.90
1570;DHT22;778;50.120;8.698;2023-02-28T07:36:30;0.60;99.90
1570;DHT22;778;50.120;8.698;2023-02-28T07:38:59;0.60;99.90
1570;DHT22;778;50.120;8.698;2023-02-28T07:41:27;0.70;99.90
1570;DHT22;778;50.120;8.698;2023-02-28T07:43:57;0.80;99.90
1570;DHT22;778;50.120;8.698;2023-02-28T07:46:27;0.80;99.90
1570;DHT22;778;50.120;8.698;2023-02-28T07:49:02;0.80;99.90
1570;DHT22;778;50.120;8.698;2023-02-28T07:51:32;0.90;99.90
1570;DHT22;778;50.120;8.698;2023-02-28T07:54:00;1.00;99.90
1570;DHT22;778;50.120;8.698;2023-02-28T07:56:29;1.00;99.90
1570;DHT22;778;50.120;8.698;2023-02-28T07:58:58;1.10;99.90
1570;DHT22;778;50.120;8.698;2023-02-28T08:01:28;1.10;99.90
1570;DHT22;778;50.120;8.698;2023-02-28T08:03:57;1.20;99.90
1570;DHT22;778;50.120;8.698;2023-02-28T08:06:25;1.30;99.90
1570;DHT22;778;50.120;8.698;2023-02-28T08:08:54;1.30;99.90
1570;DHT22;778;50.120;8.698;2023-02-28T08:11:23;1.40;99.90
1570;DHT22;778;50.120;8.698;2023-02-28T08:13:51;1.50;99.90
1570;DHT22;778;50.120;8.698;2023-02-28T08:16:20;1.50;99.90
1570;DHT22;778;50.120;8.698;2023-02-28T08:18:51;1.70;99.90
1570;DHT22;778;50.120;8.698;2023-02-28T08:21:21;1.70;99.90
1570;DHT22;778;50.120;8.698;2023-02-28T08:23:50;1.70;99.90
1570;DHT22;778;50.120;8.698;2023-02-28T08:26:19;1.80;99.90
1570;DHT22;778;50.120;8.698;2023-02-28T08:28:48;1.80;99.90
1570;DHT22;778;50.120;8.698;2023-02-28T08:31:17;2.00;99.90
1570;DHT22;778;50.120;8.698;2023-02-28T08:33:47;2.10;99.90
1570;DHT22;778;50.120;8.698;2023-02-28T08:36:19;2.10;99.90
1570;DHT22;778;50.120;8.698;2023-02-28T08:38:48;2.20;99.90
1570;DHT22;778;50.120;8.698;2023-02-28T08:41:16;2.40;99.90
1570;DHT22;778;50.120;8.698;2023-02-28T08:43:45;2.30;99.90
1570;DHT22;778;50.120;8.698;2023-02-28T08:46:14;2.40;99.90
1570;DHT22;778;50.120;8.698;2023-02-28T08:48:43;2.50;99.90
1570;DHT22;778;50.120;8.698;2023-02-28T08:51:13;2.60;99.90
1570;DHT22;778;50.120;8.698;2023-02-28T08:53:46;2.90;99.90
1570;DHT22;778;50.120;8.698;2023-02-28T08:56:16;3.50;97.20
1570;DHT22;778;50.120;8.698;2023-02-28T08:58:46;3.80;95.00
1570;DHT22;778;50.120;8.698;2023-02-28T09:01:17;4.00;93.10
1570;DHT22;778;50.120;8.698;2023-02-28T09:03:48;4.30;91.20
1570;DHT22;778;50.120;8.698;2023-02-28T09:06:19;4.40;89.80
1570;DHT22;778;50.120;8.698;2023-02-28T09:08:50;4.60;86.10
1570;DHT22;778;50.120;8.698;2023-02-28T09:11:19;4.90;83.10
1570;DHT22;778;50.120;8.698;2023-02-28T09:13:47;5.10;80.90
1570;DHT22;778;50.120;8.698;2023-02-28T09:16:16;5.20;79.50
1570;DHT22;778;50.120;8.698;2023-02-28T09:18:46;5.30;76.50
1570;DHT22;778;50.120;8.698;2023-02-28T09:21:16;5.20;75.60
1570;DHT22;778;50.120;8.698;2023-02-28T09:23:46;5.00;74.10
1570;DHT22;778;50.120;8.698;2023-02-28T09:26:18;5.00;73.50
1570;DHT22;778;50.120;8.698;2023-02-28T09:28:49;5.30;73.50
1570;DHT22;778;50.120;8.698;2023-02-28T09:31:20;5.70;71.60
1570;DHT22;778;50.120;8.698;2023-02-28T09:33:50;5.80;68.90
1570;DHT22;778;50.120;8.698;2023-02-28T09:36:20;5.60;67.60
1570;DHT22;778;50.120;8.698;2023-02-28T09:38:52;5.80;67.40
1570;DHT22;778;50.120;8.698;2023-02-28T09:41:22;5.70;65.40
1570;DHT22;778;50.120;8.698;2023-02-28T09:43:55;5.70;65.70
1570;DHT22;778;50.120;8.698;2023-02-28T09:46:33;5.40;64.50
1570;DHT22;778;50.120;8.698;2023-02-28T09:49:08;5.40;64.60
1570;DHT22;778;50.120;8.698;2023-02-28T09:51:48;5.50;64.20
1570;DHT22;778;50.120;8.698;2023-02-28T09:54:22;5.70;64.50
1570;DHT22;778;50.120;8.698;2023-02-28T09:56:55;5.60;62.60
1570;DHT22;778;50.120;8.698;2023-02-28T09:59:40;5.40;64.20
1570;DHT22;778;50.120;8.698;2023-02-28T10:02:23;5.40;64.20
1570;DHT22;778;50.120;8.698;2023-02-28T10:05:09;5.20;63.60
1570;DHT22;778;50.120;8.698;2023-02-28T10:07:48;4.60;65.70
1570;DHT22;778;50.120;8.698;2023-02-28T10:10:30;4.40;67.10
1570;DHT22;778;50.120;8.698;2023-02-28T10:13:04;4.20;67.50
1570;DHT22;778;50.120;8.698;2023-02-28T10:15:34;4.30;68.50
1570;DHT22;778;50.120;8.698;2023-02-28T10:18:06;4.90;67.50
1570;DHT22;778;50.120;8.698;2023-02-28T10:20:40;4.60;66.20
1570;DHT22;778;50.120;8.698;2023-02-28T10:23:13;4.30;67.20
1570;DHT22;778;50.120;8.698;2023-02-28T10:25:57;4.20;66.80
1570;DHT22;778;50.120;8.698;2023-02-28T10:28:29;4.40;66.80
1570;DHT22;778;50.120;8.698;2023-02-28T10:30:59;4.80;65.20
1570;DHT22;778;50.120;8.698;2023-02-28T10:33:30;5.60;99.90
1570;DHT22;778;50.120;8.698;2023-02-28T10:36:01;6.20;86.10
1570;DHT22;778;50.120;8.698;2023-02-28T10:38:35;5.80;73.00
1570;DHT22;778;50.120;8.698;2023-02-28T10:41:08;6.00;64.20
1570;DHT22;778;50.120;8.698;2023-02-28T10:43:38;6.30;60.60
1570;DHT22;778;50.120;8.698;2023-02-28T10:46:14;5.70;58.90
1570;DHT22;778;50.120;8.698;2023-02-28T10:49:02;5.30;60.60
1570;DHT22;778;50.120;8.698;2023-02-28T10:51:37;5.70;60.40
1570;DHT22;778;50.120;8.698;2023-02-28T10:54:15;5.70;59.70
1570;DHT22;778;50.120;8.698;2023-02-28T10:56:46;5.40;59.40
1570;DHT22;778;50.120;8.698;2023-02-28T10:59:33;4.60;59.50
1570;DHT22;778;50.120;8.698;2023-02-28T11:02:31;4.90;61.20
1570;DHT22;778;50.120;8.698;2023-02-28T11:05:03;5.00;60.30
1570;DHT22;778;50.120;8.698;2023-02-28T11:07:52;4.80;60.20
1570;DHT22;778;50.120;8.698;2023-02-28T11:10:25;5.00;60.30
1570;DHT22;778;50.120;8.698;2023-02-28T11:12:57;5.20;59.40
1570;DHT22;778;50.120;8.698;2023-02-28T11:15:28;5.50;59.70
1570;DHT22;778;50.120;8.698;2023-02-28T11:17:59;5.30;58.60
1570;DHT22;778;50.120;8.698;2023-02-28T11:20:31;5.20;59.20
1570;DHT22;778;50.120;8.698;2023-02-28T11:23:03;5.60;59.20
1570;DHT22;778;50.120;8.698;2023-02-28T11:25:33;5.50;58.30
1570;DHT22;778;50.120;8.698;2023-02-28T11:28:05;5.30;58.90
1570;DHT22;778;50.120;8.698;2023-02-28T11:30:38;5.20;59.60
1570;DHT22;778;50.120;8.698;2023-02-28T11:33:27;4.80;60.20
1570;DHT22;778;50.120;8.698;2023-02-28T11:36:00;4.60;61.30
1570;DHT22;778;50.120;8.698;2023-02-28T11:38:34;4.80;61.80
1570;DHT22;778;50.120;8.698;2023-02-28T11:41:16;4.90;60.50
1570;DHT22;778;50.120;8.698;2023-02-28T11:44:13;4.80;60.00
1570;DHT22;778;50.120;8.698;2023-02-28T11:46:52;4.90;60.10
1570;DHT22;778;50.120;8.698;2023-02-28T11:49:42;4.80;59.40
1570;DHT22;778;50.120;8.698;2023-02-28T11:52:21;4.80;59.80
1570;DHT22;778;50.120;8.698;2023-02-28T11:55:11;4.60;60.10
1570;DHT22;778;50.120;8.698;2023-02-28T11:58:05;4.80;61.00
1570;DHT22;778;50.120;8.698;2023-02-28T12:01:12;4.90;60.40
1570;DHT22;778;50.120;8.698;2023-02-28T12:03:58;5.10;59.70
1570;DHT22;778;50.120;8.698;2023-02-28T12:06:36;5.00;60.30
1570;DHT22;778;50.120;8.698;2023-02-28T12:09:26;4.80;61.90
1570;DHT22;778;50.120;8.698;2023-02-28T12:12:12;5.10;60.80
1570;DHT22;778;50.120;8.698;2023-02-28T12:15:05;5.00;59.90
1570;DHT22;778;50.120;8.698;2023-02-28T12:17:52;5.00;60.00
1570;DHT22;778;50.120;8.698;2023-02-28T12:20:33;5.30;59.80
1570;DHT22;778;50.120;8.698;2023-02-28T12:23:22;5.30;59.40
1570;DHT22;778;50.120;8.698;2023-02-28T12:26:02;5.70;59.20
1570;DHT22;778;50.120;8.698;2023-02-28T12:28:41;5.70;58.00
1570;DHT22;778;50.120;8.698;2023-02-28T12:31:16;5.60;58.50
1570;DHT22;778;50.120;8.698;2023-02-28T12:33:50;6.00;58.10
1570;DHT22;778;50.120;8.698;2023-02-28T12:36:21;6.30;57.70
1570;DHT22;778;50.120;8.698;2023-02-28T12:38:54;6.00;57.20
1570;DHT22;778;50.120;8.698;2023-02-28T12:41:29;6.10;56.90
1570;DHT22;778;50.120;8.698;2023-02-28T12:44:07;6.40;57.10
1570;DHT22;778;50.120;8.698;2023-02-28T12:46:41;5.90;56.80
1570;DHT22;778;50.120;8.698;2023-02-28T12:49:15;5.90;57.20
1570;DHT22;778;50.120;8.698;2023-02-28T12:51:46;5.70;57.70
1570;DHT22;778;50.120;8.698;2023-02-28T12:54:21;5.50;57.60
1570;DHT22;778;50.120;8.698;2023-02-28T12:56:57;5.40;58.30
1570;DHT22;778;50.120;8.698;2023-02-28T12:59:36;5.40;59.00
1570;DHT22;778;50.120;8.698;2023-02-28T13:06:16;5.90;59.10
1570;DHT22;778;50.120;8.698;2023-02-28T13:09:01;6.00;57.80
1570;DHT22;778;50.120;8.698;2023-02-28T13:11:34;5.80;57.70
1570;DHT22;778;50.120;8.698;2023-02-28T13:14:20;5.80;57.70
1570;DHT22;778;50.120;8.698;2023-02-28T13:17:02;5.60;58.50
1570;DHT22;778;50.120;8.698;2023-02-28T13:19:39;5.40;58.90
1570;DHT22;778;50.120;8.698;2023-02-28T13:22:19;5.70;59.00
1570;DHT22;778;50.120;8.698;2023-02-28T13:24:50;5.90;59.10
1570;DHT22;778;50.120;8.698;2023-02-28T13:27:31;6.00;58.70
1570;DHT22;778;50.120;8.698;2023-02-28T13:33:33;5.90;58.70
1570;DHT22;778;50.120;8.698;2023-02-28T13:36:25;5.90;59.00
1570;DHT22;778;50.120;8.698;2023-02-28T13:38:58;5.70;59.40
1570;DHT22;778;50.120;8.698;2023-02-28T13:41:44;5.60;59.20
1570;DHT22;778;50.120;8.698;2023-02-28T13:44:17;5.50;60.00
1570;DHT22;778;50.120;8.698;2023-02-28T13:47:22;5.70;59.70
1570;DHT22;778;50.120;8.698;2023-02-28T13:49:52;5.90;59.20
1570;DHT22;778;50.120;8.698;2023-02-28T13:52:23;5.90;59.10
1570;DHT22;778;50.120;8.698;2023-02-28T13:55:18;5.80;58.50
1570;DHT22;778;50.120;8.698;2023-02-28T13:58:07;5.80;59.00
1570;DHT22;778;50.120;8.698;2023-02-28T14:01:03;5.80;58.70
1570;DHT22;778;50.120;8.698;2023-02-28T14:04:02;5.80;58.20
1570;DHT22;778;50.120;8.698;2023-02-28T14:06:47;5.70;59.00
1570;DHT22;778;50.120;8.698;2023-02-28T14:09:21;5.70;59.20
1570;DHT22;778;50.120;8.698;2023-02-28T14:11:53;5.80;59.40
1570;DHT22;778;50.120;8.698;2023-02-28T14:14:54;5.70;59.60
1570;DHT22;778;50.120;8.698;2023-02-28T14:17:24;5.60;60.10
1570;DHT22;778;50.120;8.698;2023-02-28T14:19:54;5.70;60.50
1570;DHT22;778;50.120;8.698;2023-02-28T14:22:46;5.60;60.00
1570;DHT22;778;50.120;8.698;2023-02-28T14:25:25;5.70;60.80
1570;DHT22;778;50.120;8.698;2023-02-28T14:28:11;5.80;60.50
1570;DHT22;778;50.120;8.698;2023-02-28T14:31:06;5.70;60.60
1570;DHT22;778;50.120;8.698;2023-02-28T14:33:57;5.70;61.60
1570;DHT22;778;50.120;8.698;2023-02-28T14:36:33;5.80;61.40
1570;DHT22;778;50.120;8.698;2023-02-28T14:39:07;5.80;61.10
1570;DHT22;778;50.120;8.698;2023-02-28T14:41:40;5.60;61.20
1570;DHT22;778;50.120;8.698;2023-02-28T14:44:18;5.70;62.10
1570;DHT22;778;50.120;8.698;2023-02-28T14:46:50;5.70;62.20
1570;DHT22;778;50.120;8.698;2023-02-28T14:49:23;5.70;62.60
1570;DHT22;778;50.120;8.698;2023-02-28T14:52:03;5.50;63.00
1570;DHT22;778;50.120;8.698;2023-02-28T14:54:37;5.50;63.70
1570;DHT22;778;50.120;8.698;2023-02-28T14:57:06;5.60;64.00
1570;DHT22;778;50.120;8.698;2023-02-28T14:59:57;5.60;63.30
1570;DHT22;778;50.120;8.698;2023-02-28T15:02:30;5.60;63.60
1570;DHT22;778;50.120;8.698;2023-02-28T15:05:15;5.50;63.60
1570;DHT22;778;50.120;8.698;2023-02-28T15:08:17;5.40;64.00
1570;DHT22;778;50.120;8.698;2023-02-28T15:10:53;5.20;65.10
1570;DHT22;778;50.120;8.698;2023-02-28T15:13:23;5.50;65.60
1570;DHT22;778;50.120;8.698;2023-02-28T15:16:00;5.40;65.40
1570;DHT22;778;50.120;8.698;2023-02-28T15:18:34;5.30;65.90
1570;DHT22;778;50.120;8.698;2023-02-28T15:21:12;5.30;66.00
1570;DHT22;778;50.120;8.698;2023-02-28T15:23:48;5.50;65.90
1570;DHT22;778;50.120;8.698;2023-02-28T15:26:21;5.40;65.40
1570;DHT22;778;50.120;8.698;2023-02-28T15:28:54;5.40;66.10
1570;DHT22;778;50.120;8.698;2023-02-28T15:31:34;5.40;66.20
1570;DHT22;778;50.120;8.698;2023-02-28T15:34:27;5.50;66.80
1570;DHT22;778;50.120;8.698;2023-02-28T15:37:31;5.40;67.30
1570;DHT22;778;50.120;8.698;2023-02-28T15:40:13;5.40;67.30
1570;DHT22;778;50.120;8.698;2023-02-28T15:42:58;5.40;67.90
1570;DHT22;778;50.120;8.698;2023-02-28T15:45:46;5.20;67.70
1570;DHT22;778;50.120;8.698;2023-02-28T15:48:22;5.20;68.20
1570;DHT22;778;50.120;8.698;2023-02-28T15:50:53;5.00;68.70
1570;DHT22;778;50.120;8.698;2023-02-28T15:53:25;5.10;69.70
1570;DHT22;778;50.120;8.698;2023-02-28T15:55:59;5.20;71.10
1570;DHT22;778;50.120;8.698;2023-02-28T15:58:29;5.20;70.30
1570;DHT22;778;50.120;8.698;2023-02-28T16:01:06;5.20;70.80
1570;DHT22;778;50.120;8.698;2023-02-28T16:03:47;5.30;70.90
1570;DHT22;778;50.120;8.698;2023-02-28T16:06:37;5.20;71.00
1570;DHT22;778;50.120;8.698;2023-02-28T16:09:11;5.20;71.20
1570;DHT22;778;50.120;8.698;2023-02-28T16:11:43;5.20;72.60
1570;DHT22;778;50.120;8.698;2023-02-28T16:14:16;5.30;72.70
1570;DHT22;778;50.120;8.698;2023-02-28T16:16:48;5.30;72.80
1570;DHT22;778;50.120;8.698;2023-02-28T16:19:20;5.20;73.80
1570;DHT22;778;50.120;8.698;2023-02-28T16:21:49;5.20;73.90
1570;DHT22;778;50.120;8.698;2023-02-28T16:24:18;5.20;74.30
1570;DHT22;778;50.120;8.698;2023-02-28T16:26:47;5.00;74.70
1570;DHT22;778;50.120;8.698;2023-02-28T16:29:23;5.10;75.40
1570;DHT22;778;50.120;8.698;2023-02-28T16:31:53;5.00;76.40
1570;DHT22;778;50.120;8.698;2023-02-28T16:34:23;5.00;78.60
1570;DHT22;778;50.120;8.698;2023-02-28T16:36:51;4.90;77.80
1570;DHT22;778;50.120;8.698;2023-02-28T16:39:20;4.90;79.60
1570;DHT22;778;50.120;8.698;2023-02-28T16:41:50;4.90;79.20
1570;DHT22;778;50.120;8.698;2023-02-28T16:44:26;4.80;78.70
1570;DHT22;778;50.120;8.698;2023-02-28T16:46:56;4.80;79.20
1570;DHT22;778;50.120;8.698;2023-02-28T16:49:26;4.80;79.60
1570;DHT22;778;50.120;8.698;2023-02-28T16:51:55;4.80;80.00
1570;DHT22;778;50.120;8.698;2023-02-28T16:54:23;4.80;80.20
1570;DHT22;778;50.120;8.698;2023-02-28T16:56:52;4.70;80.30
1570;DHT22;778;50.120;8.698;2023-02-28T16:59:23;4.70;82.10
1570;DHT22;778;50.120;8.698;2023-02-28T17:01:52;4.60;82.40
1570;DHT22;778;50.120;8.698;2023-02-28T17:04:21;4.50;82.60
1570;DHT22;778;50.120;8.698;2023-02-28T17:06:51;4.50;83.10
1570;DHT22;778;50.120;8.698;2023-02-28T17:09:22;4.50;83.40
1570;DHT22;778;50.120;8.698;2023-02-28T17:12:07;4.50;83.90
1570;DHT22;778;50.120;8.698;2023-02-28T17:14:36;4.60;95.80
1570;DHT22;778;50.120;8.698;2023-02-28T17:17:04;4.60;90.40
1570;DHT22;778;50.120;8.698;2023-02-28T17:19:33;4.60;88.70
1570;DHT22;778;50.120;8.698;2023-02-28T17:22:04;4.50;89.20
1570;DHT22;778;50.120;8.698;2023-02-28T17:24:32;4.50;88.60
1570;DHT22;778;50.120;8.698;2023-02-28T17:27:01;4.50;88.40
1570;DHT22;778;50.120;8.698;2023-02-28T17:29:30;4.50;89.60
1570;DHT22;778;50.120;8.698;2023-02-28T17:31:58;4.40;88.90